createdAt,value
2019-02-09T00:00:39.495Z,65.54
2019-02-09T00:01:39.450Z,65.44
2019-02-09T00:02:39.471Z,65.74
2019-02-09T00:03:39.420Z,65.64
2019-02-09T00:04:39.409Z,65.74
2019-02-09T00:05:39.409Z,65.54
2019-02-09T00:06:39.387Z,65.64
2019-02-09T00:07:39.418Z,65.44
2019-02-09T00:08:39.367Z,65.54
2019-02-09T00:09:39.404Z,65.64
2019-02-09T00:10:39.344Z,65.64
2019-02-09T00:11:39.338Z,65.54
2019-02-09T00:12:39.322Z,65.74
2019-02-09T00:13:39.312Z,65.64
2019-02-09T00:14:39.297Z,65.64
2019-02-09T00:15:39.335Z,65.64
2019-02-09T00:16:39.277Z,65.74
2019-02-09T00:17:39.273Z,65.95
2019-02-09T00:18:39.252Z,66.05
2019-02-09T00:19:39.245Z,65.74
2019-02-09T00:20:39.246Z,65.84
2019-02-09T00:21:39.268Z,65.64
2019-02-09T00:22:39.213Z,65.74
2019-02-09T00:23:39.198Z,65.74
2019-02-09T00:24:39.193Z,65.74
2019-02-09T00:25:39.178Z,66.16
2019-02-09T00:26:39.165Z,66.36
2019-02-09T00:27:39.199Z,65.95
2019-02-09T00:28:39.147Z,66.16
2019-02-09T00:29:46.113Z,66.36
2019-02-09T00:30:40.121Z,66.46
2019-02-09T00:31:39.111Z,66.36
2019-02-09T00:32:39.139Z,66.77
2019-02-09T00:33:39.088Z,66.77
2019-02-09T00:34:39.106Z,66.97
2019-02-09T00:35:39.066Z,66.36
2019-02-09T00:36:39.067Z,66.77
2019-02-09T00:37:39.044Z,66.87
2019-02-09T00:38:39.078Z,67.11
2019-02-09T00:39:39.036Z,66.70
2019-02-09T00:40:39.011Z,67.32
2019-02-09T00:41:38.999Z,67.21
2019-02-09T00:42:38.991Z,67.32
2019-02-09T00:43:38.979Z,67.32
2019-02-09T00:44:39.012Z,67.41
2019-02-09T00:45:38.958Z,67.52
2019-02-09T00:46:38.944Z,67.41
2019-02-09T00:47:38.934Z,67.72
2019-02-09T00:48:38.923Z,67.72
2019-02-09T00:49:38.917Z,67.59
2019-02-09T00:50:38.947Z,67.32
2019-02-09T00:51:38.889Z,67.21
2019-02-09T00:52:38.879Z,67.62
2019-02-09T00:53:38.871Z,68.13
2019-02-09T00:54:38.896Z,68.24
2019-02-09T00:55:38.845Z,68.03
2019-02-09T00:56:38.843Z,68.13
2019-02-09T00:57:38.824Z,68.13
2019-02-09T00:58:38.812Z,68.03
2019-02-09T00:59:38.803Z,68.24
2019-02-09T01:00:38.841Z,68.13
2019-02-09T01:01:38.818Z,68.03
2019-02-09T01:02:38.768Z,68.13
2019-02-09T01:03:38.776Z,67.62
2019-02-09T01:04:38.745Z,67.83
2019-02-09T01:05:38.776Z,68.27
2019-02-09T01:06:38.730Z,68.24
2019-02-09T01:07:38.713Z,68.57
2019-02-09T01:08:38.705Z,68.44
2019-02-09T01:09:38.692Z,68.68
2019-02-09T01:10:38.679Z,68.57
2019-02-09T01:11:38.710Z,68.78
2019-02-09T01:12:38.672Z,68.68
2019-02-09T01:13:38.648Z,68.78
2019-02-09T01:14:38.642Z,68.57
2019-02-09T01:15:38.625Z,68.48
2019-02-09T01:16:38.616Z,68.57
2019-02-09T01:17:38.646Z,68.99
2019-02-09T01:18:38.591Z,68.78
2019-02-09T01:19:38.583Z,68.88
2019-02-09T01:20:38.570Z,68.68
2019-02-09T01:21:38.661Z,68.68
2019-02-09T01:22:38.549Z,68.88
2019-02-09T01:23:38.539Z,68.68
2019-02-09T01:24:38.525Z,68.99
2019-02-09T01:25:38.525Z,68.99
2019-02-09T01:26:38.526Z,69.50
2019-02-09T01:27:38.540Z,69.40
2019-02-09T01:28:38.482Z,69.29
2019-02-09T01:29:38.470Z,69.29
2019-02-09T01:30:38.462Z,69.91
2019-02-09T01:31:38.450Z,69.64
2019-02-09T01:32:38.439Z,69.84
2019-02-09T01:33:38.469Z,70.46
2019-02-09T01:34:38.414Z,70.66
2019-02-09T01:35:38.403Z,70.66
2019-02-09T01:36:38.400Z,70.25
2019-02-09T01:37:38.383Z,70.46
2019-02-09T01:38:38.370Z,69.84
2019-02-09T01:39:38.399Z,69.74
2019-02-09T01:40:38.349Z,70.15
2019-02-09T01:41:38.337Z,70.25
2019-02-09T01:42:38.326Z,69.94
2019-02-09T01:43:38.397Z,70.04
2019-02-09T01:44:38.308Z,70.66
2019-02-09T01:45:38.293Z,70.56
2019-02-09T01:46:38.280Z,70.46
2019-02-09T01:47:38.271Z,70.36
2019-02-09T01:48:38.263Z,70.56
2019-02-09T01:49:38.286Z,70.36
2019-02-09T01:50:38.239Z,70.15
2019-02-09T01:51:38.226Z,70.46
2019-02-09T01:52:38.214Z,70.46
2019-02-09T01:53:38.248Z,70.25
2019-02-09T01:54:38.194Z,70.04
2019-02-09T01:55:38.183Z,70.25
2019-02-09T01:56:38.211Z,70.15
2019-02-09T01:57:38.161Z,70.36
2019-02-09T01:58:38.150Z,70.46
2019-02-09T01:59:38.140Z,70.46
2019-02-09T02:00:38.128Z,70.04
2019-02-09T02:01:38.119Z,69.84
2019-02-09T02:02:38.148Z,70.15
2019-02-09T02:03:38.094Z,70.25
2019-02-09T02:04:38.090Z,70.56
2019-02-09T02:05:38.115Z,70.46
2019-02-09T02:06:38.061Z,70.36
2019-02-09T02:07:38.049Z,70.25
2019-02-09T02:08:38.040Z,70.15
2019-02-09T02:09:38.027Z,70.36
2019-02-09T02:10:38.072Z,70.53
2019-02-09T02:11:38.004Z,70.66
2019-02-09T02:12:37.997Z,70.36
2019-02-09T02:13:37.992Z,70.12
2019-02-09T02:14:37.972Z,70.56
2019-02-09T02:15:37.961Z,71.04
2019-02-09T02:16:37.996Z,71.66
2019-02-09T02:17:37.941Z,71.14
2019-02-09T02:18:37.929Z,71.45
2019-02-09T02:19:37.955Z,71.86
2019-02-09T02:20:37.915Z,72.27
2019-02-09T02:21:37.939Z,72.17
2019-02-09T02:22:37.885Z,72.06
2019-02-09T02:23:37.914Z,72.17
2019-02-09T02:24:37.864Z,72.06
2019-02-09T02:25:37.854Z,72.20
2019-02-09T02:26:37.846Z,71.97
2019-02-09T02:27:37.832Z,71.97
2019-02-09T02:28:37.828Z,71.97
2019-02-09T02:29:37.851Z,72.06
2019-02-09T02:30:37.808Z,72.06
2019-02-09T02:31:37.786Z,71.86
2019-02-09T02:32:37.778Z,71.97
2019-02-09T02:33:37.765Z,71.97
2019-02-09T02:34:37.797Z,71.93
2019-02-09T02:35:37.773Z,71.86
2019-02-09T02:36:37.749Z,71.72
2019-02-09T02:37:37.723Z,71.86
2019-02-09T02:38:37.710Z,71.72
2019-02-09T02:39:37.699Z,71.93
2019-02-09T02:40:37.725Z,71.45
2019-02-09T02:41:37.676Z,71.93
2019-02-09T02:42:37.666Z,72.14
2019-02-09T02:43:37.658Z,72.03
2019-02-09T02:44:37.687Z,72.24
2019-02-09T02:45:37.637Z,72.24
2019-02-09T02:46:37.628Z,72.38
2019-02-09T02:47:37.653Z,72.75
2019-02-09T02:48:37.600Z,72.99
2019-02-09T02:49:37.588Z,73.71
2019-02-09T02:50:37.620Z,73.50
2019-02-09T02:51:37.568Z,74.12
2019-02-09T02:52:37.558Z,74.12
2019-02-09T02:53:37.548Z,74.02
2019-02-09T02:54:37.535Z,74.43
2019-02-09T02:55:37.565Z,75.04
2019-02-09T02:56:37.512Z,75.97
2019-02-09T02:57:37.541Z,76.48
2019-02-09T02:58:37.494Z,76.72
2019-02-09T02:59:37.478Z,77.85
2019-02-09T03:00:37.466Z,78.98
2019-02-09T03:01:37.458Z,78.61
2019-02-09T03:02:37.447Z,79.43
2019-02-09T03:03:37.476Z,80.97
2019-02-09T03:04:37.462Z,81.93
2019-02-09T03:05:37.415Z,81.83
2019-02-09T03:06:37.477Z,82.34
2019-02-09T03:07:37.423Z,82.45
2019-02-09T03:08:37.380Z,82.14
2019-02-09T03:09:37.369Z,82.55
2019-02-09T03:10:37.363Z,82.45
2019-02-09T03:11:37.346Z,83.48
2019-02-09T03:12:37.383Z,83.58
2019-02-09T03:13:37.331Z,83.83
2019-02-09T03:14:37.322Z,83.20
2019-02-09T03:15:37.337Z,82.28
2019-02-09T03:16:37.292Z,81.35
2019-02-09T03:17:37.282Z,78.96
2019-02-09T03:18:37.313Z,79.26
2019-02-09T03:19:37.265Z,79.47
2019-02-09T03:20:37.257Z,79.47
2019-02-09T03:21:37.304Z,79.77
2019-02-09T03:22:37.230Z,78.47
2019-02-09T03:23:37.214Z,79.19
2019-02-09T03:24:37.250Z,78.68
2019-02-09T03:25:37.200Z,78.17
2019-02-09T03:26:37.266Z,77.45
2019-02-09T03:27:37.184Z,77.14
2019-02-09T03:28:37.177Z,77.58
2019-02-09T03:29:37.199Z,77.79
2019-02-09T03:30:46.883Z,77.17
2019-02-09T03:31:38.138Z,77.07
2019-02-09T03:32:37.133Z,75.94
2019-02-09T03:33:37.111Z,76.66
2019-02-09T03:34:37.099Z,76.56
2019-02-09T03:35:37.127Z,76.86
2019-02-09T03:36:37.084Z,77.07
2019-02-09T03:37:37.066Z,78.00
2019-02-09T03:38:37.056Z,76.86
2019-02-09T03:39:37.045Z,77.17
2019-02-09T03:40:37.077Z,76.66
2019-02-09T03:41:37.021Z,76.97
2019-02-09T03:42:37.020Z,77.48
2019-02-09T03:43:37.047Z,77.07
2019-02-09T03:44:36.990Z,77.28
2019-02-09T03:45:36.980Z,76.25
2019-02-09T03:46:36.970Z,76.25
2019-02-09T03:47:36.956Z,76.35
2019-02-09T03:48:36.956Z,76.14
2019-02-09T03:49:36.975Z,76.18
2019-02-09T03:50:36.927Z,76.35
2019-02-09T03:51:36.915Z,76.14
2019-02-09T03:52:36.905Z,76.70
2019-02-09T03:53:36.896Z,76.90
2019-02-09T03:54:36.922Z,76.90
2019-02-09T03:55:36.904Z,77.00
2019-02-09T03:56:36.904Z,76.70
2019-02-09T03:57:36.849Z,76.79
2019-02-09T03:58:36.838Z,77.31
2019-02-09T03:59:36.829Z,76.79
2019-02-09T04:00:36.820Z,77.72
2019-02-09T04:01:36.809Z,78.75
2019-02-09T04:02:36.850Z,77.62
2019-02-09T04:03:36.789Z,78.03
2019-02-09T04:04:36.772Z,78.65
2019-02-09T04:05:36.768Z,78.55
2019-02-09T04:06:36.752Z,78.65
2019-02-09T04:07:36.741Z,78.96
2019-02-09T04:08:36.784Z,78.86
2019-02-09T04:09:36.718Z,78.65
2019-02-09T04:10:36.709Z,79.47
2019-02-09T04:11:36.715Z,79.37
2019-02-09T04:12:36.688Z,79.47
2019-02-09T04:13:36.676Z,79.61
2019-02-09T04:14:36.710Z,79.41
2019-02-09T04:15:36.654Z,79.30
2019-02-09T04:16:36.645Z,79.41
2019-02-09T04:17:36.636Z,79.61
2019-02-09T04:18:36.623Z,79.51
2019-02-09T04:19:36.610Z,79.82
2019-02-09T04:20:36.646Z,80.75
2019-02-09T04:21:36.590Z,80.75
2019-02-09T04:22:36.580Z,80.13
2019-02-09T04:23:36.565Z,80.95
2019-02-09T04:24:36.562Z,79.82
2019-02-09T04:25:36.544Z,79.27
2019-02-09T04:26:36.583Z,79.58
2019-02-09T04:27:36.523Z,79.27
2019-02-09T04:28:36.519Z,79.37
2019-02-09T04:29:36.501Z,79.58
2019-02-09T04:30:36.490Z,79.47
2019-02-09T04:31:36.480Z,79.27
2019-02-09T04:32:36.514Z,79.27
2019-02-09T04:33:36.458Z,79.27
2019-02-09T04:34:36.454Z,79.79
2019-02-09T04:35:36.479Z,79.27
2019-02-09T04:36:36.427Z,79.68
2019-02-09T04:37:36.416Z,79.72
2019-02-09T04:38:36.401Z,79.47
2019-02-09T04:39:36.446Z,79.68
2019-02-09T04:40:36.391Z,79.88
2019-02-09T04:41:36.373Z,80.40
2019-02-09T04:42:36.361Z,80.19
2019-02-09T04:43:36.349Z,80.51
2019-02-09T04:44:36.381Z,81.12
2019-02-09T04:45:36.335Z,80.51
2019-02-09T04:46:36.318Z,80.09
2019-02-09T04:47:36.308Z,79.58
2019-02-09T04:48:36.343Z,80.19
2019-02-09T04:49:36.293Z,80.91
2019-02-09T04:50:36.277Z,80.91
2019-02-09T04:51:36.267Z,81.37
2019-02-09T04:52:36.253Z,80.75
2019-02-09T04:53:36.310Z,80.95
2019-02-09T04:54:36.231Z,80.71
2019-02-09T04:55:36.217Z,80.65
2019-02-09T04:56:36.213Z,81.12
2019-02-09T04:57:36.198Z,80.19
2019-02-09T04:58:36.229Z,78.20
2019-02-09T04:59:36.174Z,77.17
2019-02-09T05:00:36.166Z,76.62
2019-02-09T05:01:36.152Z,76.73
2019-02-09T05:02:36.148Z,76.62
2019-02-09T05:03:36.133Z,76.93
2019-02-09T05:04:36.163Z,77.14
2019-02-09T05:05:36.110Z,77.28
2019-02-09T05:06:36.103Z,77.28
2019-02-09T05:07:36.128Z,77.03
2019-02-09T05:08:36.082Z,77.03
2019-02-09T05:09:36.065Z,77.14
2019-02-09T05:10:36.097Z,77.03
2019-02-09T05:11:36.061Z,76.73
2019-02-09T05:12:36.034Z,76.11
2019-02-09T05:13:36.028Z,76.52
2019-02-09T05:14:36.016Z,75.97
2019-02-09T05:15:36.002Z,75.97
2019-02-09T05:16:36.041Z,76.07
2019-02-09T05:17:35.978Z,75.87
2019-02-09T05:18:35.966Z,75.87
2019-02-09T05:19:35.960Z,76.07
2019-02-09T05:20:35.949Z,76.38
2019-02-09T05:21:35.937Z,76.07
2019-02-09T05:22:35.972Z,76.59
2019-02-09T05:23:35.913Z,76.07
2019-02-09T05:24:35.903Z,76.48
2019-02-09T05:25:35.931Z,77.41
2019-02-09T05:26:35.884Z,77.10
2019-02-09T05:27:35.870Z,77.62
2019-02-09T05:28:35.918Z,77.72
2019-02-09T05:29:35.851Z,77.51
2019-02-09T05:30:35.836Z,77.14
2019-02-09T05:31:35.833Z,76.90
2019-02-09T05:32:35.817Z,77.24
2019-02-09T05:33:35.849Z,77.03
2019-02-09T05:34:35.834Z,77.55
2019-02-09T05:35:35.828Z,77.45
2019-02-09T05:36:35.773Z,77.65
2019-02-09T05:37:35.804Z,76.93
2019-02-09T05:38:35.770Z,77.03
2019-02-09T05:39:35.741Z,77.14
2019-02-09T05:40:35.729Z,77.24
2019-02-09T05:41:35.719Z,76.73
2019-02-09T05:42:35.713Z,76.42
2019-02-09T05:43:35.748Z,75.90
2019-02-09T05:44:35.685Z,76.42
2019-02-09T05:45:35.676Z,76.73
2019-02-09T05:46:35.663Z,76.11
2019-02-09T05:47:35.652Z,75.70
2019-02-09T05:48:35.666Z,75.70
2019-02-09T05:49:35.681Z,76.52
2019-02-09T05:50:35.622Z,75.84
2019-02-09T05:51:35.610Z,76.04
2019-02-09T05:52:35.644Z,73.95
2019-02-09T05:53:35.587Z,73.54
2019-02-09T05:54:35.629Z,73.95
2019-02-09T05:55:35.583Z,73.74
2019-02-09T05:56:35.600Z,74.05
2019-02-09T05:57:35.544Z,73.02
2019-02-09T05:58:35.532Z,73.85
2019-02-09T05:59:35.527Z,73.95
2019-02-09T06:00:35.514Z,73.02
2019-02-09T06:01:35.505Z,73.02
2019-02-09T06:02:35.540Z,73.13
2019-02-09T06:03:35.486Z,73.23
2019-02-09T06:04:35.476Z,72.30
2019-02-09T06:05:35.477Z,73.44
2019-02-09T06:06:35.493Z,72.92
2019-02-09T06:07:35.436Z,73.23
2019-02-09T06:08:35.429Z,72.41
2019-02-09T06:09:35.413Z,72.81
2019-02-09T06:10:35.407Z,72.30
2019-02-09T06:11:35.398Z,72.30
2019-02-09T06:12:35.426Z,72.72
2019-02-09T06:13:35.394Z,72.09
2019-02-09T06:14:35.406Z,72.51
2019-02-09T06:15:35.353Z,72.54
2019-02-09T06:16:35.340Z,72.34
2019-02-09T06:17:35.342Z,72.44
2019-02-09T06:18:35.327Z,72.64
2019-02-09T06:19:35.307Z,72.54
2019-02-09T06:20:35.341Z,72.75
2019-02-09T06:21:35.284Z,72.51
2019-02-09T06:22:35.277Z,73.06
2019-02-09T06:23:35.262Z,72.85
2019-02-09T06:24:35.256Z,72.24
2019-02-09T06:25:35.242Z,72.30
2019-02-09T06:26:35.346Z,72.81
2019-02-09T06:27:35.232Z,72.85
2019-02-09T06:28:35.212Z,73.26
2019-02-09T06:29:35.216Z,73.88
2019-02-09T06:30:35.189Z,73.85
2019-02-09T06:31:40.665Z,73.88
2019-02-09T06:32:36.207Z,73.68
2019-02-09T06:33:35.156Z,74.29
2019-02-09T06:34:35.147Z,74.63
2019-02-09T06:35:35.140Z,74.63
2019-02-09T06:36:35.152Z,74.74
2019-02-09T06:37:35.131Z,75.25
2019-02-09T06:38:35.157Z,75.18
2019-02-09T06:39:35.095Z,75.81
2019-02-09T06:40:35.084Z,74.88
2019-02-09T06:41:35.071Z,75.08
2019-02-09T06:42:35.103Z,74.22
2019-02-09T06:43:35.050Z,73.71
2019-02-09T06:44:35.040Z,74.22
2019-02-09T06:45:35.029Z,74.02
2019-02-09T06:46:35.021Z,74.02
2019-02-09T06:47:35.010Z,74.77
2019-02-09T06:48:35.055Z,74.43
2019-02-09T06:49:34.986Z,74.12
2019-02-09T06:50:34.977Z,73.91
2019-02-09T06:51:34.969Z,73.91
2019-02-09T06:52:34.949Z,73.09
2019-02-09T06:53:34.987Z,73.61
2019-02-09T06:54:34.937Z,73.91
2019-02-09T06:55:34.967Z,73.30
2019-02-09T06:56:34.907Z,74.12
2019-02-09T06:57:34.946Z,74.02
2019-02-09T06:58:34.893Z,73.81
2019-02-09T06:59:34.881Z,73.85
2019-02-09T07:00:34.868Z,74.22
2019-02-09T07:01:34.905Z,74.16
2019-02-09T07:02:34.847Z,74.67
2019-02-09T07:03:34.873Z,74.67
2019-02-09T07:04:34.822Z,74.46
2019-02-09T07:05:34.812Z,74.67
2019-02-09T07:06:34.800Z,74.16
2019-02-09T07:07:34.788Z,74.46
2019-02-09T07:08:34.826Z,74.43
2019-02-09T07:09:34.779Z,73.91
2019-02-09T07:10:34.755Z,74.22
2019-02-09T07:11:34.743Z,74.84
2019-02-09T07:12:34.735Z,74.36
2019-02-09T07:13:34.725Z,74.57
2019-02-09T07:14:34.757Z,74.46
2019-02-09T07:15:34.712Z,74.91
2019-02-09T07:16:34.690Z,75.49
2019-02-09T07:17:34.704Z,74.98
2019-02-09T07:18:34.673Z,76.15
2019-02-09T07:19:34.660Z,75.70
2019-02-09T07:20:34.693Z,75.94
2019-02-09T07:21:34.637Z,76.15
2019-02-09T07:22:34.635Z,76.25
2019-02-09T07:23:34.615Z,76.49
2019-02-09T07:24:34.603Z,76.56
2019-02-09T07:25:34.592Z,76.87
2019-02-09T07:26:34.631Z,75.94
2019-02-09T07:27:34.571Z,76.87
2019-02-09T07:28:34.571Z,76.76
2019-02-09T07:29:34.558Z,76.15
2019-02-09T07:30:34.538Z,76.76
2019-02-09T07:31:34.572Z,76.90
2019-02-09T07:32:34.522Z,77.11
2019-02-09T07:33:34.512Z,76.70
2019-02-09T07:34:34.521Z,77.01
2019-02-09T07:35:34.487Z,76.66
2019-02-09T07:36:34.515Z,76.56
2019-02-09T07:37:34.468Z,76.66
2019-02-09T07:38:34.461Z,76.25
2019-02-09T07:39:34.442Z,76.66
2019-02-09T07:40:34.437Z,76.25
2019-02-09T07:41:34.468Z,76.15
2019-02-09T07:42:34.413Z,76.35
2019-02-09T07:43:34.397Z,76.25
2019-02-09T07:44:34.389Z,76.35
2019-02-09T07:45:34.384Z,75.94
2019-02-09T07:46:34.368Z,76.25
2019-02-09T07:47:34.404Z,76.46
2019-02-09T07:48:34.397Z,76.15
2019-02-09T07:49:34.377Z,75.90
2019-02-09T07:50:34.327Z,75.94
2019-02-09T07:51:34.329Z,76.15
2019-02-09T07:52:34.306Z,75.73
2019-02-09T07:53:34.337Z,75.84
2019-02-09T07:54:34.347Z,76.01
2019-02-09T07:55:34.274Z,76.32
2019-02-09T07:56:34.263Z,75.60
2019-02-09T07:57:34.258Z,74.98
2019-02-09T07:58:34.241Z,74.74
2019-02-09T07:59:34.233Z,74.12
2019-02-09T08:00:34.258Z,73.71
2019-02-09T08:01:34.208Z,73.78
2019-02-09T08:02:34.196Z,73.06
2019-02-09T08:03:34.186Z,72.34
2019-02-09T08:04:34.218Z,70.56
2019-02-09T08:05:34.171Z,70.76
2019-02-09T08:06:34.154Z,70.97
2019-02-09T08:07:34.183Z,70.21
2019-02-09T08:08:34.186Z,70.11
2019-02-09T08:09:34.123Z,70.32
2019-02-09T08:10:34.113Z,70.11
2019-02-09T08:11:34.098Z,69.15
2019-02-09T08:12:34.089Z,68.85
2019-02-09T08:13:34.094Z,68.30
2019-02-09T08:14:34.110Z,67.07
2019-02-09T08:15:34.059Z,66.66
2019-02-09T08:16:34.046Z,66.76
2019-02-09T08:17:34.043Z,66.86
2019-02-09T08:18:34.028Z,67.07
2019-02-09T08:19:34.019Z,65.53
2019-02-09T08:20:34.047Z,65.39
2019-02-09T08:21:33.989Z,65.50
2019-02-09T08:22:33.995Z,65.19
2019-02-09T08:23:33.974Z,65.09
2019-02-09T08:24:33.958Z,65.47
2019-02-09T08:25:33.945Z,65.16
2019-02-09T08:26:33.980Z,65.50
2019-02-09T08:27:33.930Z,65.39
2019-02-09T08:28:33.928Z,64.67
2019-02-09T08:29:33.905Z,64.75
2019-02-09T08:30:33.891Z,65.26
2019-02-09T08:31:33.896Z,64.98
2019-02-09T08:32:33.918Z,63.75
2019-02-09T08:33:33.865Z,65.26
2019-02-09T08:34:33.851Z,64.13
2019-02-09T08:35:33.838Z,64.95
2019-02-09T08:36:33.826Z,64.54
2019-02-09T08:37:33.816Z,64.23
2019-02-09T08:38:33.864Z,64.75
2019-02-09T08:39:33.793Z,64.57
2019-02-09T08:40:33.783Z,64.23
2019-02-09T08:41:33.788Z,64.37
2019-02-09T08:42:33.762Z,63.21
2019-02-09T08:43:33.773Z,64.03
2019-02-09T08:44:33.807Z,64.13
2019-02-09T08:45:33.739Z,64.95
2019-02-09T08:46:33.726Z,64.03
2019-02-09T08:47:33.723Z,64.44
2019-02-09T08:48:33.714Z,64.44
2019-02-09T08:49:33.691Z,64.64
2019-02-09T08:50:33.730Z,64.44
2019-02-09T08:51:33.668Z,63.85
2019-02-09T08:52:33.663Z,64.54
2019-02-09T08:53:33.646Z,64.37
2019-02-09T08:54:33.629Z,63.93
2019-02-09T08:55:33.624Z,64.44
2019-02-09T08:56:33.649Z,64.75
2019-02-09T08:57:33.643Z,63.90
2019-02-09T08:58:33.599Z,63.18
2019-02-09T08:59:33.580Z,63.42
2019-02-09T09:00:33.569Z,63.28
2019-02-09T09:01:33.560Z,63.69
2019-02-09T09:02:33.589Z,64.20
2019-02-09T09:03:33.531Z,63.90
2019-02-09T09:04:33.522Z,63.69
2019-02-09T09:05:33.532Z,63.76
2019-02-09T09:06:33.499Z,64.41
2019-02-09T09:07:33.532Z,63.35
2019-02-09T09:08:33.478Z,63.18
2019-02-09T09:09:33.482Z,63.79
2019-02-09T09:10:33.471Z,64.20
2019-02-09T09:11:33.501Z,63.49
2019-02-09T09:12:33.819Z,63.59
2019-02-09T09:13:33.424Z,63.28
2019-02-09T09:14:33.414Z,63.59
2019-02-09T09:15:33.410Z,63.79
2019-02-09T09:16:33.394Z,63.28
2019-02-09T09:17:33.427Z,63.56
2019-02-09T09:18:33.432Z,63.46
2019-02-09T09:19:33.359Z,63.35
2019-02-09T09:20:33.348Z,64.07
2019-02-09T09:21:33.337Z,63.15
2019-02-09T09:22:33.322Z,63.25
2019-02-09T09:23:33.319Z,63.46
2019-02-09T09:24:33.344Z,63.66
2019-02-09T09:25:33.299Z,63.56
2019-02-09T09:26:33.280Z,64.38
2019-02-09T09:27:33.291Z,63.25
2019-02-09T09:28:33.264Z,63.46
2019-02-09T09:29:33.246Z,63.22
2019-02-09T09:30:33.290Z,63.53
2019-02-09T09:31:33.224Z,63.56
2019-02-09T09:32:33.260Z,62.84
2019-02-09T09:33:33.206Z,62.95
2019-02-09T09:34:33.191Z,63.66
2019-02-09T09:35:33.189Z,63.53
2019-02-09T09:36:33.170Z,63.43
2019-02-09T09:37:33.220Z,63.32
2019-02-09T09:38:33.155Z,62.40
2019-02-09T09:39:33.159Z,62.81
2019-02-09T09:40:33.129Z,62.81
2019-02-09T09:41:33.179Z,62.81
2019-02-09T09:42:33.117Z,62.81
2019-02-09T09:43:34.087Z,61.96
2019-02-09T09:44:33.087Z,62.19
2019-02-09T09:45:33.071Z,62.10
2019-02-09T09:46:33.058Z,61.55
2019-02-09T09:47:33.104Z,62.99
2019-02-09T09:48:33.050Z,61.86
2019-02-09T09:49:33.041Z,61.96
2019-02-09T09:50:33.017Z,61.35
2019-02-09T09:51:33.017Z,62.27
2019-02-09T09:52:32.991Z,61.83
2019-02-09T09:53:33.050Z,62.14
2019-02-09T09:54:32.976Z,61.04
2019-02-09T09:55:32.958Z,60.22
2019-02-09T09:56:32.955Z,61.01
2019-02-09T09:57:32.938Z,60.60
2019-02-09T09:58:32.934Z,61.32
2019-02-09T09:59:32.970Z,61.60
2019-02-09T10:00:32.906Z,60.40
2019-02-09T10:01:32.929Z,61.83
2019-02-09T10:02:36.581Z,59.78
2019-02-09T10:03:32.872Z,59.99
2019-02-09T10:04:32.906Z,60.81
2019-02-09T10:05:32.862Z,60.50
2019-02-09T10:06:32.890Z,61.01
2019-02-09T10:07:32.832Z,61.32
2019-02-09T10:08:32.820Z,60.27
2019-02-09T10:09:32.815Z,60.47
2019-02-09T10:10:32.837Z,60.78
2019-02-09T10:11:32.784Z,59.76
2019-02-09T10:12:32.773Z,59.76
2019-02-09T10:13:32.761Z,59.96
2019-02-09T10:14:32.745Z,60.06
2019-02-09T10:15:32.739Z,59.66
2019-02-09T10:16:32.780Z,61.26
2019-02-09T10:17:32.719Z,60.03
2019-02-09T10:18:32.704Z,59.19
2019-02-09T10:19:32.694Z,59.09
2019-02-09T10:20:32.698Z,59.39
2019-02-09T10:21:32.670Z,59.19
2019-02-09T10:22:32.714Z,59.19
2019-02-09T10:23:32.700Z,59.09
2019-02-09T10:24:32.648Z,58.98
2019-02-09T10:25:32.631Z,59.27
2019-02-09T10:26:32.625Z,58.96
2019-02-09T10:27:32.610Z,58.34
2019-02-09T10:28:32.595Z,58.32
2019-02-09T10:29:32.627Z,57.91
2019-02-09T10:30:32.585Z,57.40
2019-02-09T10:31:32.779Z,57.91
2019-02-09T10:32:32.549Z,57.70
2019-02-09T10:33:32.535Z,56.25
2019-02-09T10:34:32.584Z,57.57
2019-02-09T10:35:32.549Z,56.25
2019-02-09T10:36:32.506Z,56.86
2019-02-09T10:37:32.504Z,57.37
2019-02-09T10:38:32.482Z,56.32
2019-02-09T10:39:32.522Z,56.73
2019-02-09T10:40:32.481Z,56.10
2019-02-09T10:41:32.445Z,56.50
2019-02-09T10:42:32.439Z,56.84
2019-02-09T10:43:32.425Z,56.30
2019-02-09T10:44:32.456Z,56.10
2019-02-09T10:45:32.403Z,54.79
2019-02-09T10:46:32.392Z,56.94
2019-02-09T10:47:32.432Z,55.10
2019-02-09T10:48:32.372Z,55.30
2019-02-09T10:49:32.362Z,55.10
2019-02-09T10:50:32.386Z,54.82
2019-02-09T10:51:32.335Z,54.82
2019-02-09T10:52:32.324Z,55.94
2019-02-09T10:53:32.317Z,55.84
2019-02-09T10:54:32.313Z,55.41
2019-02-09T10:55:32.296Z,54.77
2019-02-09T10:56:32.326Z,55.07
2019-02-09T10:57:32.273Z,54.97
2019-02-09T10:58:32.270Z,53.36
2019-02-09T10:59:32.253Z,55.10
2019-02-09T11:00:32.251Z,54.61
2019-02-09T11:01:32.226Z,54.51
2019-02-09T11:02:32.259Z,54.74
2019-02-09T11:03:32.211Z,55.13
2019-02-09T11:04:32.248Z,54.82
2019-02-09T11:05:32.184Z,54.82
2019-02-09T11:06:32.166Z,54.82
2019-02-09T11:07:32.161Z,54.92
2019-02-09T11:08:32.158Z,54.82
2019-02-09T11:09:32.155Z,55.63
2019-02-09T11:10:32.170Z,55.36
2019-02-09T11:11:32.116Z,56.38
2019-02-09T11:12:32.111Z,55.26
2019-02-09T11:13:32.110Z,54.85
2019-02-09T11:14:32.087Z,55.69
2019-02-09T11:15:32.074Z,55.36
2019-02-09T11:16:32.109Z,54.95
2019-02-09T11:17:32.094Z,54.97
2019-02-09T11:18:32.043Z,55.89
2019-02-09T11:19:32.027Z,56.30
2019-02-09T11:20:32.015Z,55.46
2019-02-09T11:21:32.003Z,56.51
2019-02-09T11:22:32.038Z,56.30
2019-02-09T11:23:31.979Z,56.51
2019-02-09T11:24:31.972Z,56.40
2019-02-09T11:25:31.958Z,56.38
2019-02-09T11:26:31.954Z,56.17
2019-02-09T11:27:31.978Z,56.40
2019-02-09T11:28:31.966Z,55.28
2019-02-09T11:29:31.914Z,55.89
2019-02-09T11:30:31.912Z,56.40
2019-02-09T11:31:31.894Z,56.40
2019-02-09T11:32:31.903Z,56.92
2019-02-09T11:33:31.888Z,55.58
2019-02-09T11:34:31.902Z,55.28
2019-02-09T11:35:32.364Z,55.15
2019-02-09T11:36:31.835Z,54.77
2019-02-09T11:37:31.828Z,54.87
2019-02-09T11:38:31.813Z,55.26
2019-02-09T11:39:31.802Z,55.46
2019-02-09T11:40:31.850Z,55.15
2019-02-09T11:41:31.792Z,54.85
2019-02-09T11:42:32.116Z,55.15
2019-02-09T11:43:31.759Z,55.26
2019-02-09T11:44:31.766Z,55.28
2019-02-09T11:45:31.747Z,54.97
2019-02-09T11:46:31.781Z,54.97
2019-02-09T11:47:31.731Z,55.18
2019-02-09T11:48:31.704Z,55.69
2019-02-09T11:49:31.691Z,55.36
2019-02-09T11:50:31.687Z,54.85
2019-02-09T11:51:31.672Z,55.15
2019-02-09T11:52:31.701Z,54.95
2019-02-09T11:53:31.648Z,54.54
2019-02-09T11:54:31.639Z,55.15
2019-02-09T11:55:31.628Z,54.64
2019-02-09T11:56:31.617Z,54.33
2019-02-09T11:57:31.604Z,54.51
2019-02-09T11:58:31.635Z,54.39
2019-02-09T11:59:31.584Z,53.16
2019-02-09T12:00:31.569Z,53.27
2019-02-09T12:01:31.563Z,52.96
2019-02-09T12:02:31.590Z,53.16
2019-02-09T12:03:31.540Z,53.70
2019-02-09T12:04:31.524Z,53.47
2019-02-09T12:05:31.522Z,54.18
2019-02-09T12:06:31.513Z,53.47
2019-02-09T12:07:31.551Z,53.57
2019-02-09T12:08:31.505Z,53.57
2019-02-09T12:09:31.471Z,53.64
2019-02-09T12:10:31.467Z,53.34
2019-02-09T12:11:31.452Z,53.34
2019-02-09T12:12:32.534Z,53.24
2019-02-09T12:13:31.485Z,52.91
2019-02-09T12:14:31.414Z,53.01
2019-02-09T12:15:31.405Z,53.19
2019-02-09T12:16:31.392Z,52.58
2019-02-09T12:17:31.430Z,52.68
2019-02-09T12:18:31.375Z,52.68
2019-02-09T12:19:31.360Z,52.60
2019-02-09T12:20:31.357Z,52.91
2019-02-09T12:21:31.340Z,52.93
2019-02-09T12:22:31.328Z,53.14
2019-02-09T12:23:31.361Z,53.55
2019-02-09T12:24:31.305Z,53.11
2019-02-09T12:25:31.295Z,53.83
2019-02-09T12:26:31.281Z,53.52
2019-02-09T12:27:31.325Z,52.88
2019-02-09T12:28:31.259Z,52.07
2019-02-09T12:29:31.294Z,52.07
2019-02-09T12:30:31.235Z,52.07
2019-02-09T12:31:31.273Z,52.17
2019-02-09T12:32:31.220Z,51.17
2019-02-09T12:33:31.206Z,51.51
2019-02-09T12:34:31.203Z,52.01
2019-02-09T12:35:31.184Z,52.40
2019-02-09T12:36:31.189Z,52.53
2019-02-09T12:37:32.236Z,53.03
2019-02-09T12:38:31.510Z,52.40
2019-02-09T12:39:31.145Z,52.81
2019-02-09T12:40:31.131Z,52.42
2019-02-09T12:41:31.122Z,52.53
2019-02-09T12:42:31.105Z,52.75
2019-02-09T12:43:31.136Z,53.24
2019-02-09T12:44:31.097Z,52.45
2019-02-09T12:45:31.072Z,53.44
2019-02-09T12:46:31.125Z,53.03
2019-02-09T12:47:31.064Z,53.14
2019-02-09T12:48:31.076Z,52.12
2019-02-09T12:49:31.035Z,52.93
2019-02-09T12:50:31.017Z,53.57
2019-02-09T12:51:31.061Z,53.27
2019-02-09T12:52:30.993Z,53.36